Weather observations for the past three days for
Morris, Morris Municipal Airport
Imperial (Metric)
Date Time (cdt) Wind (mph) Vis. (mi.) Weather Sky Cond. Temperature (ºF) Relative Humidity Wind Chill (°F) Heat Index (°F) Pressure Precipitation (in)
Air Dwpt 6 hour altimeter (in) sea level (mb) 1 hr 3 hr 6 hr
Max. Min.
10 10:55 N 9 G 21 10.00 Fair CLR 53.6 26.6 35% 30.15 0.0
10 10:35 N 15 G 23 10.00 Fair CLR 53.6 26.6 35% 30.15 0.0
10 10:15 N 15 10.00 Fair CLR 51.8 26.6 38% 30.15 0.0
10 09:55 NE 12 G 18 10.00 Fair CLR 51.8 28.4 41% 30.15 0.0
10 09:35 NE 14 G 21 10.00 Fair CLR 50 30.2 47% 45 30.14 0.0
10 09:15 N 17 10.00 Fair CLR 50 28.4 43% 45 30.14 0.0
10 08:55 NE 15 G 22 10.00 Fair CLR 50 30.2 47% 45 30.13 0.0
10 08:35 N 13 10.00 Fair CLR 50 30.2 47% 46 30.12 0.0
10 08:15 NE 12 10.00 Fair CLR 48.2 30.2 50% 44 30.12 0.0
10 07:55 N 10 10.00 Fair CLR 48.2 30.2 50% 44 30.11 0.0
10 07:35 N 8 10.00 Fair CLR 44.6 32 61% 41 30.11 0.0
10 07:15 N 8 10.00 Fair CLR 42.8 32 66% 39 30.1 0.0
10 06:55 NE 8 10.00 Fair CLR 39.2 30.2 70% 34 30.09 0.0
10 06:35 NE 8 10.00 Fair CLR 37.4 28.4 70% 32 30.08 0.0
10 06:15 N 7 10.00 Fair CLR 37.4 28.4 70% 33 30.08 0.0
10 05:55 N 8 10.00 Fair CLR 39.2 28.4 65% 34 30.07 0.0
10 05:35 N 8 10.00 A Few Clouds FEW085 39.2 28.4 65% 34 30.06 0.0
10 05:15 NW 7 10.00 Mostly Cloudy FEW070 BKN085 41 30.2 66% 37 30.05 0.0
10 04:55 NW 6 10.00 Overcast OVC080 41 30.2 66% 38 30.04 0.0
10 04:35 NW 6 10.00 Overcast OVC080 42.8 30.2 61% 40 30.04 0.0
10 04:15 W 5 10.00 Overcast OVC080 42.8 30.2 61% 41 30.03 0.0
10 03:55 W 6 10.00 Overcast FEW075 OVC085 42.8 30.2 61% 40 30.02 0.0
10 03:35 W 5 10.00 Overcast FEW075 OVC085 44.6 28.4 53% 43 30.02 0.0
10 03:15 W 5 10.00 Overcast BKN080 OVC090 44.6 28.4 53% 43 30.01 0.0
10 02:55 NW 3 10.00 Overcast OVC085 44.6 28.4 53% 30.01 0.0
10 02:35 W 8 10.00 Overcast OVC085 44.6 28.4 53% 41 30 0.0
10 02:15 SW 7 10.00 Overcast OVC085 44.6 30.2 57% 41 30 0.0
10 01:55 W 6 10.00 Overcast FEW070 BKN080 OVC085 46.4 28.4 50% 44 30.01 0.0
10 01:35 NW 5 10.00 Overcast FEW060 BKN075 OVC085 44.6 30.2 57% 43 30.01 0.0
10 01:15 W 5 10.00 Overcast FEW060 SCT075 OVC085 46.4 32 57% 45 30.01 0.0
10 00:55 W 5 10.00 Overcast SCT075 OVC085 46.4 28.4 50% 45 30 0.0
10 00:35 W 5 10.00 Overcast BKN075 OVC085 46.4 28.4 50% 45 30 0.0
10 00:15 W 5 10.00 Overcast SCT075 OVC085 46.4 28.4 50% 45 29.99 0.0
09 23:55 W 5 10.00 Overcast BKN075 OVC085 46.4 30.2 53% 45 29.99 0.0
09 23:35 W 3 10.00 Overcast BKN075 OVC085 46.4 28.4 50% 29.99 0.0
09 23:15 W 3 10.00 Overcast OVC080 46.4 28.4 50% 29.99 0.0
09 22:55 W 3 10.00 Overcast OVC080 48.2 28.4 46% 29.99 0.0
09 22:35 Calm 10.00 Overcast OVC075 48.2 24.8 40% 29.98 0.0
09 22:15 Calm 10.00 Overcast OVC080 48.2 24.8 40% 29.98 0.0
09 21:55 N 3 10.00 Overcast OVC080 50 23 35% 29.98 0.0
09 21:35 N 6 10.00 Mostly Cloudy SCT075 BKN085 48.2 23 37% 46 29.97 0.0
09 21:15 N 8 10.00 Partly Cloudy SCT080 50 23 35% 47 29.96 0.0
09 20:55 N 8 10.00 Mostly Cloudy BKN080 51.8 23 32% 29.95 0.0
09 20:35 N 14 10.00 Mostly Cloudy BKN080 53.6 23 30% 29.94 0.0
09 20:15 NW 10 10.00 Partly Cloudy SCT080 53.6 23 30% 29.93 0.0
09 19:55 N 15 G 22 10.00 A Few Clouds FEW080 55.4 23 28% 29.93 0.0
09 19:35 N 14 G 21 10.00 A Few Clouds FEW080 55.4 21.2 26% 29.92 0.0
09 19:15 N 15 G 24 10.00 A Few Clouds FEW075 55.4 21.2 26% 29.92 0.0
09 18:55 N 17 G 26 10.00 A Few Clouds FEW075 57.2 21.2 25% 29.91 0.0
09 18:35 NW 14 G 23 10.00 Fair CLR 57.2 23 27% 29.91 0.0
09 18:15 N 21 G 29 10.00 A Few Clouds and Breezy FEW075 57.2 21.2 25% 29.9 0.0
09 17:55 N 21 G 31 10.00 Partly Cloudy and Breezy SCT075 59 23 25% 29.9 0.0
09 17:35 N 21 G 26 10.00 A Few Clouds and Breezy FEW075 59 23 25% 29.89 0.0
09 17:15 N 18 G 33 10.00 A Few Clouds FEW070 59 23 25% 29.89 0.0
09 16:55 N 20 G 31 10.00 A Few Clouds FEW070 59 24.8 27% 29.89 0.0
09 16:35 N 15 G 28 10.00 A Few Clouds FEW070 59 24.8 27% 29.89 0.0
09 16:15 NW 17 G 30 10.00 A Few Clouds FEW070 59 24.8 27% 29.89 0.0
09 15:55 NW 18 G 31 10.00 Fair CLR 59 24.8 27% 29.89 0.0
09 15:35 NW 18 G 30 10.00 Fair CLR 59 24.8 27% 29.89 0.0
09 15:15 NW 24 10.00 Fair and Breezy CLR 57.2 24.8 29% 29.89 0.0
09 14:55 N 26 G 33 10.00 Fair and Windy CLR 57.2 26.6 31% 29.89 0.0
09 14:35 NW 23 G 31 10.00 Fair and Breezy CLR 57.2 26.6 31% 29.89 0.0
09 14:15 NW 21 G 31 10.00 Fair and Breezy CLR 57.2 26.6 31% 29.88 0.0
09 13:55 N 29 10.00 Fair and Windy CLR 57.2 26.6 31% 29.88 0.0
09 13:35 N 25 G 33 10.00 Fair and Breezy CLR 55.4 26.6 33% 29.88 0.0
09 13:15 N 24 G 33 10.00 Fair and Breezy CLR 55.4 26.6 33% 29.87 0.0
09 12:55 N 26 G 33 10.00 Fair and Windy CLR 55.4 26.6 33% 29.87 0.0
09 12:35 NW 25 G 32 10.00 Fair and Breezy CLR 55.4 26.6 33% 29.86 0.0
09 12:15 NW 28 G 36 10.00 Fair and Windy CLR 53.6 26.6 35% 29.86 0.0
09 11:55 NW 20 G 32 10.00 Fair CLR 53.6 28.4 38% 29.86 0.0
09 11:35 N 21 G 29 10.00 Fair and Breezy CLR 53.6 28.4 38% 29.85 0.0
09 11:15 N 24 10.00 Fair and Breezy CLR 53.6 28.4 38% 29.84 0.0
09 10:55 N 24 G 31 10.00 Fair and Breezy CLR 53.6 26.6 35% 29.84 0.0
09 10:35 NW 23 G 32 10.00 Fair and Breezy CLR 51.8 28.4 41% 29.83 0.0
09 10:15 N 20 G 26 10.00 Fair CLR 51.8 32 47% 29.82 0.0
09 09:55 N 23 10.00 Fair and Breezy CLR 51.8 32 47% 29.81 0.0
09 09:35 N 18 10.00 Fair CLR 50 35.6 58% 44 29.8 0.0
09 09:15 N 21 G 28 10.00 Fair and Breezy CLR 50 35.6 58% 44 29.8 0.0
09 08:55 N 20 10.00 Fair CLR 48.2 39.2 71% 42 29.79 0.0
09 08:35 NW 18 10.00 Fair CLR 46.4 41 82% 40 29.78 0.0
09 08:15 N 20 10.00 Fair CLR 46.4 42.8 87% 40 29.77 0.0
09 07:55 NW 17 10.00 Fair CLR 44.6 44.6 100% 38 29.77 0.0
09 07:35 NW 16 10.00 Fair CLR 44.6 44.6 100% 38 29.76 0.0
09 07:15 NW 12 10.00 Fair CLR 42.8 42.8 100% 37 29.75 0.0
09 06:55 NW 9 10.00 Fair CLR 42.8 42.8 100% 38 29.73 0.0
09 06:35 NW 12 8.00 Fair CLR 41 41 100% 35 29.72 0.0
09 06:15 NW 9 7.00 Fair CLR 41 41 100% 36 29.71 0.0
09 05:55 NW 12 7.00 Fair CLR 42.8 42.8 100% 37 29.7 0.0
09 05:35 NW 13 9.00 Partly Cloudy SCT006 42.8 42.8 100% 37 29.7 0.0
09 05:15 NW 14 G 22 10.00 Overcast OVC007 46.4 46.4 100% 41 29.69 0.0
09 04:55 NW 21 10.00 Overcast and Breezy BKN008 OVC050 46.4 46.4 100% 39 29.68 0.0
09 04:35 NW 16 10.00 Overcast FEW009 OVC055 46.4 46.4 100% 40 29.67 0.0
09 04:15 NW 14 10.00 Mostly Cloudy BKN055 BKN080 BKN120 48.2 48.2 100% 43 29.66 0.0
09 03:55 NW 14 10.00 Mostly Cloudy SCT049 BKN065 BKN075 48.2 48.2 100% 43 29.65 0.0
09 03:35 NW 13 10.00 Mostly Cloudy SCT049 BKN055 BKN065 50 48.2 94% 46 29.63 0.0
09 03:15 W 12 10.00 Mostly Cloudy FEW016 SCT044 BKN060 50 48.2 94% 46 29.62 0.0
09 02:55 NW 14 G 28 5.00 Light Rain Fog/Mist FEW016 SCT040 BKN055 50 48.2 94% 45 29.62 0.0
09 02:35 N 10 10.00 Overcast FEW044 BKN055 OVC070 50 46.4 88% 46 29.63 0.0
09 02:15 N 20 G 26 10.00 Overcast SCT055 OVC070 50 44.6 82% 44 29.62 0.0
09 01:55 N 18 10.00 Overcast BKN075 OVC090 51.8 44.6 77% 29.62 0.0
09 01:35 N 16 10.00 Overcast BKN080 OVC095 51.8 44.6 77% 29.62 0.0
09 01:15 N 18 10.00 Overcast SCT065 BKN075 OVC085 51.8 42.8 72% 29.61 0.0
09 00:55 N 13 10.00 Overcast BKN065 BKN075 OVC085 53.6 42.8 67% 29.61 0.0
09 00:35 N 20 G 28 10.00 Overcast FEW037 FEW050 OVC065 55.4 39.2 55% 29.62 0.0
09 00:15 NW 10 10.00 Overcast FEW036 BKN060 OVC070 53.6 32 44% 29.62 0.0
08 23:55 NW 5 10.00 Overcast FEW055 OVC070 51.8 32 47% 29.61 0.0
08 23:35 SW 8 10.00 Mostly Cloudy SCT080 BKN100 BKN110 53.6 32 44% 29.6 0.0
08 23:15 SW 6 10.00 A Few Clouds FEW120 50 30.2 47% 48 29.59 0.0
08 22:55 SW 7 10.00 A Few Clouds FEW100 50 30.2 47% 48 29.6 0.0
08 22:35 SW 7 10.00 A Few Clouds FEW100 51.8 28.4 41% 29.61 0.0
08 22:15 SW 6 10.00 Fair CLR 51.8 30.2 44% 29.61 0.0
08 21:55 SW 7 10.00 Fair CLR 51.8 30.2 44% 29.62 0.0
08 21:35 W 5 10.00 Fair CLR 53.6 30.2 41% 29.62 0.0
08 21:15 W 6 10.00 Fair CLR 55.4 28.4 36% 29.62 0.0
08 20:55 NW 7 10.00 Fair CLR 57.2 28.4 33% 29.62 0.0
08 20:35 NW 8 10.00 Fair CLR 59 30.2 34% 29.62 0.0
08 20:15 NW 9 10.00 Fair CLR 62.6 28.4 27% 29.62 0.0
08 19:55 NW 15 10.00 Fair CLR 64.4 28.4 26% 29.62 0.0
08 19:35 NW 18 G 26 10.00 Fair CLR 64.4 28.4 26% 29.63 0.0
08 19:15 NW 17 G 25 10.00 Fair CLR 66.2 28.4 24% 29.63 0.0
08 18:55 NW 24 G 32 10.00 Fair and Breezy CLR 66.2 26.6 22% 29.62 0.0
08 18:35 NW 28 G 37 10.00 Fair and Windy CLR 68 26.6 21% 29.62 0.0
08 18:15 NW 28 10.00 Fair and Windy CLR 68 26.6 21% 29.62 0.0
08 17:55 NW 21 G 36 10.00 Fair and Breezy CLR 68 26.6 21% 29.62 0.0
08 17:35 NW 25 G 37 10.00 Fair and Breezy CLR 69.8 26.6 20% 29.62 0.0
08 17:15 NW 24 G 36 10.00 Fair and Breezy CLR 71.6 26.6 19% 29.61 0.0
08 16:55 NW 26 G 35 10.00 Fair and Windy CLR 71.6 24.8 17% 29.61 0.0
08 16:35 NW 28 G 36 10.00 A Few Clouds and Windy FEW100 71.6 26.6 19% 29.6 0.0
08 16:15 NW 28 G 37 10.00 A Few Clouds and Windy FEW100 71.6 24.8 17% 29.6 0.0
08 15:55 NW 20 G 31 10.00 Fair CLR 71.6 24.8 17% 29.6 0.0
08 15:35 NW 22 G 32 10.00 A Few Clouds and Breezy FEW095 71.6 26.6 19% 29.6 0.0
08 15:15 NW 23 G 40 8.00 Partly Cloudy and Breezy SCT095 73.4 24.8 16% 29.61 0.0
08 14:55 NW 23 G 36 10.00 Partly Cloudy and Breezy SCT095 71.6 26.6 19% 29.61 0.0
08 14:35 NW 17 G 30 10.00 A Few Clouds FEW095 69.8 26.6 20% 29.62 0.0
08 14:15 NW 22 G 29 10.00 Partly Cloudy and Breezy SCT090 71.6 26.6 19% 29.62 0.0
08 13:55 W 16 G 35 10.00 Partly Cloudy SCT090 69.8 26.6 20% 29.62 0.0
08 13:35 NW 18 10.00 Mostly Cloudy BKN090 69.8 26.6 20% 29.63 0.0
08 13:15 W 20 G 31 10.00 Mostly Cloudy BKN095 68 24.8 20% 29.63 0.0
08 12:55 NW 15 10.00 Partly Cloudy SCT095 SCT110 68 24.8 20% 29.64 0.0
08 12:35 NW 12 G 18 10.00 Fair CLR 68 26.6 21% 29.65 0.0
08 12:15 NW 14 10.00 Fair CLR 68 26.6 21% 29.66 0.0
08 11:55 W 9 G 20 10.00 A Few Clouds FEW110 66.2 26.6 22% 29.67 0.0
08 11:35 W 12 10.00 Partly Cloudy SCT110 66.2 28.4 24% 29.68 0.0
08 11:15 W 10 G 17 10.00 Mostly Cloudy BKN110 64.4 26.6 24% 29.68 0.0
08 10:55 W 12 10.00 Mostly Cloudy BKN110 62.6 24.8 24% 29.68 0.0
08 10:35 W 12 10.00 Mostly Cloudy BKN110 64.4 24.8 22% 29.69 0.0
08 10:15 W 10 10.00 Mostly Cloudy BKN110 60.8 24.8 25% 29.7 0.0
08 09:55 NW 7 10.00 A Few Clouds FEW110 60.8 26.6 27% 29.7 0.0
08 09:35 NW 6 10.00 A Few Clouds FEW110 57.2 28.4 33% 29.71 0.0
08 09:15 Vrbl 5 10.00 Fair CLR 55.4 30.2 38% 29.72 0.0
08 08:55 NW 7 10.00 Fair CLR 51.8 30.2 44% 29.72 0.0
08 08:35 NW 7 10.00 Fair CLR 51.8 30.2 44% 29.73 0.0
08 08:15 W 7 10.00 Partly Cloudy SCT110 50 30.2 47% 48 29.73 0.0
08 07:55 W 7 10.00 Mostly Cloudy BKN090 BKN110 46.4 30.2 53% 43 29.73 0.0
08 07:35 W 7 10.00 Overcast OVC090 44.6 30.2 57% 41 29.73 0.0
08 07:15 W 6 10.00 Overcast OVC090 42.8 30.2 61% 40 29.73 0.0
08 06:55 SW 3 10.00 Overcast FEW080 OVC090 41 30.2 66% 29.73 0.0
08 06:35 SW 5 10.00 Overcast FEW080 OVC095 41 28.4 61% 38 29.73 0.0
08 06:15 W 7 10.00 Overcast OVC095 39.2 28.4 65% 35 29.73 0.0
08 05:55 W 6 10.00 Overcast OVC100 39.2 26.6 61% 36 29.72 0.0
08 05:35 Calm 10.00 Mostly Cloudy BKN100 39.2 24.8 56% 29.72 0.0
08 05:15 SW 5 10.00 Mostly Cloudy BKN095 37.4 26.6 65% 34 29.72 0.0
08 04:55 SW 6 10.00 Partly Cloudy SCT090 37.4 24.8 60% 33 29.72 0.0
08 04:35 S 5 10.00 Fair CLR 39.2 24.8 56% 36 29.73 0.0
08 04:15 S 3 10.00 Fair CLR 42.8 24.8 49% 29.73 0.0
08 03:55 Calm 10.00 Fair CLR 42.8 24.8 49% 29.73 0.0
08 03:35 Calm 10.00 Fair CLR 39.2 24.8 56% 29.73 0.0
08 03:15 W 5 10.00 Fair CLR 42.8 24.8 49% 41 29.74 0.0
08 02:55 Calm 10.00 Fair CLR 44.6 26.6 49% 29.74 0.0
08 02:35 SW 3 G 12 10.00 Fair CLR 44.6 26.6 49% 29.74 0.0
08 02:15 SW 7 10.00 Fair CLR 44.6 26.6 49% 41 29.74 0.0
08 01:55 SW 6 10.00 Fair CLR 44.6 24.8 46% 42 29.74 0.0
08 01:35 SW 7 10.00 Fair CLR 42.8 24.8 49% 39 29.75 0.0
08 01:15 SW 7 10.00 Fair CLR 42.8 24.8 49% 39 29.75 0.0
08 00:55 SW 6 10.00 Fair CLR 42.8 24.8 49% 40 29.75 0.0
08 00:35 SW 5 10.00 Fair CLR 41 26.6 57% 38 29.75 0.0
08 00:15 SW 5 10.00 Fair CLR 42.8 24.8 49% 41 29.76 0.0
07 23:55 SW 3 10.00 Fair CLR 42.8 23 46% 29.76 0.0
07 23:35 W 5 10.00 Fair CLR 44.6 24.8 46% 43 29.76 0.0
07 23:15 W 3 10.00 Fair CLR 46.4 24.8 43% 29.77 0.0
07 22:55 NW 5 10.00 Fair CLR 48.2 24.8 40% 47 29.77 0.0
07 22:35 W 3 10.00 A Few Clouds FEW003 48.2 23 37% 29.77 0.0
07 22:15 W 5 10.00 A Few Clouds FEW003 50 23 35% 49 29.77 0.0
07 21:55 SW 5 10.00 Fair CLR 50 23 35% 49 29.77 0.0
07 21:35 Calm 10.00 Fair CLR 50 21.2 32% 29.77 0.0
07 21:15 Calm 10.00 Fair CLR 51.8 23 32% 29.77 0.0
07 20:55 W 5 10.00 Fair CLR 51.8 21.2 30% 29.76 0.0
07 20:35 W 6 10.00 Fair CLR 53.6 23 30% 29.76 0.0
07 20:15 W 8 10.00 Fair CLR 55.4 23 28% 29.76 0.0
07 19:55 W 9 10.00 Fair CLR 59 19.4 21% 29.76 0.0
07 19:35 W 12 10.00 Fair CLR 59 21.2 23% 29.76 0.0
07 19:15 NW 14 10.00 A Few Clouds FEW090 60.8 19.4 20% 29.76 0.0
07 18:55 NW 10 10.00 A Few Clouds FEW090 60.8 21.2 22% 29.76 0.0
07 18:35 NW 10 10.00 Fair CLR 60.8 21.2 22% 29.76 0.0
07 18:15 W 10 G 17 10.00 A Few Clouds FEW085 60.8 23 23% 29.77 0.0
07 17:55 NW 13 G 20 10.00 A Few Clouds FEW090 60.8 21.2 22% 29.77 0.0
07 17:35 NW 9 G 21 10.00 Fair CLR 60.8 21.2 22% 29.77 0.0
07 17:15 W 8 G 16 10.00 A Few Clouds FEW085 60.8 21.2 22% 29.78 0.0
07 16:55 W 14 G 24 10.00 Fair CLR 60.8 21.2 22% 29.78 0.0
07 16:35 Vrbl 7 G 22 10.00 Fair CLR 60.8 21.2 22% 29.79 0.0
07 16:15 NW 12 G 20 10.00 A Few Clouds FEW080 60.8 21.2 22% 29.79 0.0
07 15:55 NW 12 G 25 10.00 Fair CLR 59 21.2 23% 29.79 0.0
07 15:35 NW 14 G 22 10.00 A Few Clouds FEW085 60.8 21.2 22% 29.8 0.0
07 15:15 NW 12 G 18 10.00 Fair CLR 59 21.2 23% 29.81 0.0
07 14:55 NW 18 G 26 10.00 A Few Clouds FEW075 59 21.2 23% 29.81 0.0
07 14:35 W 14 G 23 10.00 Partly Cloudy SCT075 59 23 25% 29.81 0.0
07 14:15 W 14 G 21 10.00 Partly Cloudy SCT075 59 23 25% 29.82 0.0
07 13:55 N 13 G 21 10.00 Partly Cloudy SCT075 59 21.2 23% 29.82 0.0
07 13:35 NW 14 G 21 10.00 A Few Clouds FEW075 57.2 21.2 25% 29.83 0.0
07 13:15 NW 15 G 26 10.00 A Few Clouds FEW075 57.2 23 27% 29.83 0.0
07 12:55 NW 14 10.00 A Few Clouds FEW070 55.4 21.2 26% 29.84 0.0
07 12:35 W 15 10.00 Partly Cloudy SCT070 53.6 21.2 28% 29.85 0.0
07 12:15 NW 10 8.00 Mostly Cloudy BKN070 53.6 21.2 28% 29.86 0.0
07 11:55 Vrbl 5 G 12 10.00 Mostly Cloudy BKN070 53.6 21.2 28% 29.86 0.0
07 11:35 W 9 G 16 9.00 Partly Cloudy SCT070 53.6 21.2 28% 29.87 0.0
Date Time (cdt) Wind (mph) Vis. (mi.) Weather Sky Cond. Air Dwpt Max. Min. Relative Humidity Wind Chill (°F) Heat Index (°F) altimeter (in) sea level (mb) 1 hr 3 hr 6 hr
6 hour
Temperature (ºF) Pressure Precipitation (in)